createdAt,value
2022-11-06T00:01:18.150Z,101358.78
2022-11-06T00:03:46.518Z,101361.03
2022-11-06T00:06:38.109Z,101366.50
2022-11-06T00:09:10.116Z,101365.69
2022-11-06T00:11:40.162Z,101373.56
2022-11-06T00:14:09.029Z,101364.25
2022-11-06T00:16:40.365Z,101365.06
2022-11-06T00:19:09.635Z,101358.94
2022-11-06T00:21:37.977Z,101361.69
2022-11-06T00:24:08.401Z,101361.22
2022-11-06T00:26:36.806Z,101358.78
2022-11-06T00:29:05.868Z,101354.78
2022-11-06T00:31:37.676Z,101364.09
2022-11-06T00:34:08.149Z,101368.28
2022-11-06T00:36:40.348Z,101364.72
2022-11-06T00:39:11.420Z,101357.34
2022-11-06T00:41:40.011Z,101359.28
2022-11-06T00:44:10.764Z,101360.09
2022-11-06T00:46:40.322Z,101350.56
2022-11-06T00:49:09.061Z,101360.84
2022-11-06T00:51:44.091Z,101358.47
2022-11-06T00:54:14.284Z,101360.38
2022-11-06T00:56:43.580Z,101351.38
2022-11-06T00:59:15.214Z,101356.03
2022-11-06T01:01:45.793Z,101355.56
2022-11-06T01:04:18.549Z,101352.84
2022-11-06T01:06:50.602Z,101353.63
2022-11-06T01:09:20.246Z,101345.75
2022-11-06T01:14:41.370Z,101348.63
2022-11-06T01:17:09.829Z,101339.94
2022-11-06T01:19:40.250Z,101343.47
2022-11-06T01:22:09.106Z,101356.31
2022-11-06T01:24:41.772Z,101347.66
2022-11-06T01:27:27.164Z,101349.28
2022-11-06T01:29:57.462Z,101356.97
2022-11-06T01:32:25.814Z,101348.28
2022-11-06T01:34:54.084Z,101342.81
2022-11-06T01:37:22.173Z,101352.16
2022-11-06T01:39:55.244Z,101356.00
2022-11-06T01:42:23.933Z,101343.31
2022-11-06T01:47:53.063Z,101351.06
2022-11-06T01:50:22.347Z,101350.69
2022-11-06T01:52:54.450Z,101356.47
2022-11-06T01:55:35.029Z,101347.50
2022-11-06T01:58:06.369Z,101346.69
2022-11-06T02:00:44.297Z,101356.16
2022-11-06T02:03:15.803Z,101348.28
2022-11-06T02:05:45.913Z,101358.59
2022-11-06T02:08:17.463Z,101348.47
2022-11-06T02:11:03.041Z,101351.19
2022-11-06T02:19:50.169Z,101347.81
2022-11-06T02:22:38.263Z,101349.09
2022-11-06T02:27:56.961Z,101367.25
2022-11-06T02:30:32.670Z,101355.19
2022-11-06T02:33:07.762Z,101350.38
2022-11-06T02:35:43.106Z,101361.28
2022-11-06T02:38:19.241Z,101356.13
2022-11-06T02:40:57.734Z,101358.88
2022-11-06T02:43:40.512Z,101356.59
2022-11-06T02:46:20.422Z,101358.56
2022-11-06T02:48:59.682Z,101351.16
2022-11-06T02:51:34.497Z,101350.53
2022-11-06T02:54:14.555Z,101348.91
2022-11-06T02:56:58.683Z,101352.16
2022-11-06T02:59:44.446Z,101355.69
2022-11-06T03:02:29.823Z,101348.91
2022-11-06T03:05:23.197Z,101343.47
2022-11-06T03:08:06.541Z,101335.78
2022-11-06T03:11:07.138Z,101346.34
2022-11-06T03:17:10.417Z,101338.97
2022-11-06T03:20:11.103Z,101343.28
2022-11-06T03:29:02.391Z,101347.94
2022-11-06T03:31:42.270Z,101333.00
2022-11-06T03:34:28.495Z,101329.66
2022-11-06T03:37:22.497Z,101336.72
2022-11-06T03:40:04.077Z,101344.41
2022-11-06T03:42:52.451Z,101338.44
2022-11-06T03:45:28.205Z,101332.22
2022-11-06T03:48:35.559Z,101338.28
2022-11-06T03:56:34.837Z,101327.22
2022-11-06T03:59:08.799Z,101328.81
2022-11-06T04:01:55.350Z,101321.91
2022-11-06T04:04:35.765Z,101316.28
2022-11-06T04:07:16.015Z,101322.53
2022-11-06T04:10:12.601Z,101310.00
2022-11-06T04:13:08.973Z,101328.66
2022-11-06T04:15:47.391Z,101319.00
2022-11-06T04:18:21.435Z,101332.66
2022-11-06T04:21:28.436Z,101333.78
2022-11-06T04:32:26.400Z,101327.50
2022-11-06T04:38:38.763Z,101327.03
2022-11-06T04:41:38.405Z,101328.59
2022-11-06T04:46:56.100Z,101328.44
2022-11-06T04:49:35.577Z,101337.13
2022-11-06T04:52:16.005Z,101341.47
2022-11-06T04:55:01.063Z,101341.47
2022-11-06T04:57:48.525Z,101348.22
2022-11-06T05:00:26.331Z,101349.47
2022-11-06T05:03:06.913Z,101345.63
2022-11-06T05:05:50.644Z,101348.88
2022-11-06T05:08:34.074Z,101344.22
2022-11-06T05:11:24.041Z,101344.38
2022-11-06T05:14:00.138Z,101356.91
2022-11-06T05:16:35.759Z,101347.41
2022-11-06T05:19:28.414Z,101354.81
2022-11-06T05:25:14.610Z,101356.06
2022-11-06T05:28:11.913Z,101360.88
2022-11-06T05:30:53.046Z,101360.69
2022-11-06T05:33:26.522Z,101356.34
2022-11-06T05:36:14.286Z,101359.06
2022-11-06T05:38:55.801Z,101361.16
2022-11-06T05:41:41.222Z,101363.59
2022-11-06T05:44:19.812Z,101366.78
2022-11-06T05:46:55.517Z,101360.22
2022-11-06T05:49:31.476Z,101356.56
2022-11-06T05:52:04.020Z,101363.75
2022-11-06T05:54:34.406Z,101356.38
2022-11-06T05:57:08.341Z,101358.81
2022-11-06T05:59:37.099Z,101359.28
2022-11-06T06:02:06.889Z,101363.78
2022-11-06T06:04:36.683Z,101361.22
2022-11-06T06:07:22.524Z,101367.03
2022-11-06T06:10:11.744Z,101362.69
2022-11-06T06:12:55.661Z,101367.84
2022-11-06T06:15:27.505Z,101367.34
2022-11-06T06:18:02.129Z,101368.31
2022-11-06T06:21:02.484Z,101363.66
2022-11-06T06:23:32.386Z,101368.81
2022-11-06T06:26:04.155Z,101367.06
2022-11-06T06:28:33.039Z,101363.69
2022-11-06T06:31:08.672Z,101357.75
2022-11-06T06:33:43.648Z,101367.38
2022-11-06T06:36:14.637Z,101371.03
2022-11-06T06:38:55.179Z,101363.34
2022-11-06T06:41:27.979Z,101368.00
2022-11-06T06:43:59.383Z,101359.66
2022-11-06T06:46:31.422Z,101368.31
2022-11-06T06:49:03.583Z,101369.78
2022-11-06T06:51:44.426Z,101373.78
2022-11-06T06:54:20.178Z,101369.66
2022-11-06T06:56:55.836Z,101365.00
2022-11-06T06:59:29.408Z,101359.34
2022-11-06T07:02:06.441Z,101361.47
2022-11-06T07:04:37.598Z,101358.41
2022-11-06T07:07:14.117Z,101354.41
2022-11-06T07:09:45.734Z,101355.06
2022-11-06T07:12:17.655Z,101346.44
2022-11-06T07:14:52.270Z,101348.00
2022-11-06T07:17:40.195Z,101351.38
2022-11-06T07:20:23.858Z,101343.03
2022-11-06T07:23:17.023Z,101339.97
2022-11-06T07:26:04.009Z,101349.47
2022-11-06T07:28:41.267Z,101344.47
2022-11-06T07:31:19.354Z,101357.31
2022-11-06T07:34:14.194Z,101354.44
2022-11-06T07:36:58.743Z,101354.25
2022-11-06T07:39:42.491Z,101355.22
2022-11-06T07:42:32.274Z,101352.84
2022-11-06T07:45:06.725Z,101357.50
2022-11-06T07:47:58.887Z,101352.50
2022-11-06T07:50:36.991Z,101351.88
2022-11-06T07:53:14.907Z,101350.44
2022-11-06T07:56:21.035Z,101342.41
2022-11-06T07:59:42.345Z,101343.38
2022-11-06T08:02:18.444Z,101347.25
2022-11-06T08:05:04.438Z,101343.56
2022-11-06T08:07:41.954Z,101346.63
2022-11-06T08:10:14.644Z,101352.56
2022-11-06T08:12:54.345Z,101352.06
2022-11-06T08:15:33.846Z,101349.50
2022-11-06T08:18:11.114Z,101344.19
2022-11-06T08:20:47.918Z,101350.31
2022-11-06T08:23:30.153Z,101340.19
2022-11-06T08:26:08.361Z,101343.09
2022-11-06T08:28:44.382Z,101343.41
2022-11-06T08:31:20.455Z,101342.94
2022-11-06T08:33:55.633Z,101337.63
2022-11-06T08:36:35.214Z,101341.81
2022-11-06T08:39:07.800Z,101343.75
2022-11-06T08:41:37.689Z,101341.50
2022-11-06T08:44:09.970Z,101336.81
2022-11-06T08:46:50.725Z,101348.25
2022-11-06T08:49:23.597Z,101344.53
2022-11-06T08:51:52.664Z,101343.72
2022-11-06T08:54:22.256Z,101329.75
2022-11-06T08:56:53.357Z,101332.00
2022-11-06T08:59:29.933Z,101333.75
2022-11-06T09:02:01.947Z,101337.97
2022-11-06T09:04:31.489Z,101331.69
2022-11-06T09:07:03.690Z,101333.59
2022-11-06T09:09:38.709Z,101323.31
2022-11-06T09:12:07.919Z,101336.03
2022-11-06T09:14:36.772Z,101330.06
2022-11-06T09:17:06.254Z,101319.63
2022-11-06T09:19:40.959Z,101328.78
2022-11-06T09:22:10.809Z,101334.72
2022-11-06T09:25:02.729Z,101328.16
2022-11-06T09:27:55.876Z,101333.16
2022-11-06T09:30:33.613Z,101336.66
2022-11-06T09:33:09.166Z,101334.91
2022-11-06T09:35:51.832Z,101333.59
2022-11-06T09:38:31.701Z,101329.59
2022-11-06T09:41:10.030Z,101322.53
2022-11-06T09:52:07.336Z,101314.97
2022-11-06T09:55:32.985Z,101316.25
2022-11-06T09:58:56.469Z,101317.88
2022-11-06T10:02:31.639Z,101322.69
2022-11-06T10:05:49.578Z,101318.31
2022-11-06T10:08:41.887Z,101309.16
2022-11-06T10:14:53.851Z,101311.75
2022-11-06T10:20:37.372Z,101304.03
2022-11-06T10:26:40.530Z,101303.53
2022-11-06T10:34:52.382Z,101297.44
2022-11-06T10:37:35.060Z,101299.03
2022-11-06T10:40:20.546Z,101293.25
2022-11-06T10:45:57.897Z,101286.84
2022-11-06T10:49:15.476Z,101283.94
2022-11-06T10:55:40.687Z,101274.94
2022-11-06T10:58:24.113Z,101279.25
2022-11-06T11:01:12.561Z,101273.81
2022-11-06T11:03:55.127Z,101275.41
2022-11-06T11:06:35.628Z,101279.91
2022-11-06T11:09:34.341Z,101273.50
2022-11-06T11:12:29.819Z,101280.22
2022-11-06T11:15:30.148Z,101275.25
2022-11-06T11:18:41.573Z,101292.47
2022-11-06T11:21:54.109Z,101287.63
2022-11-06T11:24:41.686Z,101294.25
2022-11-06T11:27:21.157Z,101290.34
2022-11-06T11:30:14.839Z,101290.03
2022-11-06T11:32:55.237Z,101291.50
2022-11-06T11:35:42.584Z,101295.50
2022-11-06T11:38:23.548Z,101297.75
2022-11-06T11:41:28.930Z,101298.56
2022-11-06T11:45:35.202Z,101288.44
2022-11-06T12:08:45.685Z,101265.78
2022-11-06T12:12:34.513Z,101269.97
2022-11-06T12:18:00.619Z,101266.25
2022-11-06T12:21:22.153Z,101258.38
2022-11-06T12:24:31.725Z,101260.81
2022-11-06T12:27:48.866Z,101260.66
2022-11-06T12:59:43.653Z,101260.63
2022-11-06T13:05:26.777Z,101246.19
2022-11-06T13:14:14.278Z,101249.53
2022-11-06T14:36:34.682Z,101219.66
2022-11-06T14:43:01.613Z,101200.53
2022-11-06T15:00:37.730Z,101181.59
2022-11-06T15:15:57.064Z,101195.53
2022-11-06T17:10:32.716Z,101141.44
2022-11-06T17:49:35.523Z,101131.50
2022-11-06T17:52:48.992Z,101130.38
2022-11-06T18:11:19.393Z,101126.19
2022-11-06T18:15:07.642Z,101130.03
2022-11-06T18:23:40.789Z,101123.78
2022-11-06T18:26:27.064Z,101122.34
2022-11-06T18:29:26.009Z,101118.50
2022-11-06T18:32:29.952Z,101120.41
2022-11-06T18:35:31.111Z,101123.16
2022-11-06T18:38:36.250Z,101115.28
2022-11-06T18:41:23.563Z,101118.00
2022-11-06T18:44:21.223Z,101120.41
2022-11-06T18:47:32.966Z,101116.88
2022-11-06T18:50:44.973Z,101122.34
2022-11-06T19:19:25.340Z,101109.00
2022-11-06T19:25:17.914Z,101112.22
2022-11-06T19:28:23.247Z,101109.16
2022-11-06T19:36:08.580Z,101105.66
2022-11-06T19:48:32.189Z,101108.03
2022-11-06T19:55:57.243Z,101106.13
2022-11-06T20:03:32.308Z,101100.00
2022-11-06T20:06:43.208Z,101094.53
2022-11-06T20:12:40.052Z,101092.63
2022-11-06T20:26:57.633Z,101075.28
2022-11-06T20:48:57.598Z,101068.53
2022-11-06T20:52:13.214Z,101057.28
2022-11-06T20:55:34.833Z,101065.47
2022-11-06T21:06:39.035Z,101054.72
2022-11-06T21:20:58.914Z,101049.72
2022-11-06T21:26:41.199Z,101045.22
2022-11-06T21:29:55.347Z,101040.56
2022-11-06T21:33:50.791Z,101031.72
2022-11-06T21:37:51.420Z,101029.78
2022-11-06T21:40:35.419Z,101032.16
2022-11-06T21:44:07.606Z,101034.13
2022-11-06T21:47:01.380Z,101029.44
2022-11-06T21:57:57.654Z,101020.63
2022-11-06T22:01:02.854Z,101020.28
2022-11-06T22:03:52.169Z,101019.94
2022-11-06T22:06:45.112Z,101020.44
2022-11-06T22:09:26.059Z,101023.19
2022-11-06T22:12:05.268Z,101032.94
2022-11-06T22:14:56.211Z,101029.91
2022-11-06T22:17:52.231Z,101022.81
2022-11-06T22:21:19.014Z,101016.25
2022-11-06T22:37:43.555Z,101014.13
2022-11-06T22:41:11.631Z,101005.28
2022-11-06T22:47:45.458Z,101000.63
2022-11-06T22:50:23.243Z,101004.97
2022-11-06T22:53:09.428Z,101003.84
2022-11-06T22:56:08.290Z,101008.16
2022-11-06T22:58:58.476Z,100999.94
2022-11-06T23:01:42.440Z,100991.75
2022-11-06T23:04:21.132Z,101001.56
2022-11-06T23:06:56.897Z,101003.97
2022-11-06T23:09:45.612Z,101003.66
2022-11-06T23:12:49.310Z,100998.19
2022-11-06T23:15:50.511Z,100988.53
2022-11-06T23:18:31.992Z,100995.59
2022-11-06T23:21:27.630Z,100990.59
2022-11-06T23:24:18.731Z,100979.34
2022-11-06T23:26:55.011Z,100981.75
2022-11-06T23:29:45.924Z,100978.66
2022-11-06T23:32:30.681Z,100991.22
2022-11-06T23:35:08.088Z,100982.69
2022-11-06T23:37:51.912Z,100987.81
2022-11-06T23:40:36.143Z,100979.59
2022-11-06T23:43:12.881Z,100984.75
2022-11-06T23:45:54.931Z,100973.50
2022-11-06T23:48:39.953Z,100974.31
2022-11-06T23:51:16.813Z,100976.69
2022-11-06T23:53:58.819Z,100976.38
2022-11-06T23:56:49.289Z,100971.72
2022-11-06T23:59:22.380Z,100966.72
